createdAt,value
2022-10-22T00:02:46.269Z,98.58
2022-10-22T00:04:47.557Z,98.46
2022-10-22T00:06:49.305Z,98.43
2022-10-22T00:08:50.729Z,98.39
2022-10-22T00:12:52.959Z,98.1
2022-10-22T00:14:54.292Z,97.5
2022-10-22T00:16:55.940Z,97.31
2022-10-22T00:18:57.031Z,96.74
2022-10-22T00:20:58.364Z,96.47
2022-10-22T00:22:59.857Z,95.71
2022-10-22T00:25:01.266Z,95.53
2022-10-22T00:27:02.595Z,94.68
2022-10-22T00:29:03.540Z,94.7
2022-10-22T00:31:04.607Z,94.89
2022-10-22T00:33:05.913Z,95.01
2022-10-22T00:35:07.619Z,95.12
2022-10-22T00:37:08.768Z,95.28
2022-10-22T00:39:10.367Z,94.74
2022-10-22T00:41:11.727Z,95.67
2022-10-22T00:43:13.507Z,96.04
2022-10-22T00:45:14.636Z,95.57
2022-10-22T00:47:15.785Z,94.34
2022-10-22T00:49:17.420Z,94.04
2022-10-22T00:51:18.551Z,93.91
2022-10-22T00:55:21.707Z,92.98
2022-10-22T00:57:22.799Z,92.9
2022-10-22T00:59:23.830Z,92.45
2022-10-22T01:01:24.928Z,92.9
2022-10-22T01:03:26.329Z,93.02
2022-10-22T01:05:28.004Z,92.84
2022-10-22T01:07:29.810Z,92.87
2022-10-22T01:09:30.736Z,92.92
2022-10-22T01:11:32.397Z,92.64
2022-10-22T01:13:33.747Z,92.19
2022-10-22T01:15:35.023Z,92.03
2022-10-22T01:17:36.415Z,92.13
2022-10-22T01:19:37.606Z,92.27
2022-10-22T01:21:39.259Z,92.28
2022-10-22T01:23:40.521Z,92.21
2022-10-22T01:25:42.044Z,91.68
2022-10-22T01:27:43.951Z,92.16
2022-10-22T01:29:45.430Z,92.04
2022-10-22T01:31:47.001Z,92.25
2022-10-22T01:33:48.123Z,91.61
2022-10-22T01:37:50.728Z,91.28
2022-10-22T01:39:52.251Z,91.25
2022-10-22T01:41:54.082Z,91.18
2022-10-22T01:43:55.831Z,91.66
2022-10-22T01:45:57.086Z,91.78
2022-10-22T01:47:58.110Z,91.69
2022-10-22T01:49:59.486Z,92.1
2022-10-22T01:52:00.592Z,92.55
2022-10-22T01:54:01.920Z,92.69
2022-10-22T01:56:03.761Z,92.98
2022-10-22T01:58:04.793Z,93.09
2022-10-22T02:00:06.419Z,91.98
2022-10-22T02:02:08.194Z,91.17
2022-10-22T02:04:09.156Z,91.38
2022-10-22T02:06:10.839Z,91.08
2022-10-22T02:08:11.809Z,89.99
2022-10-22T02:10:13.375Z,90.65
2022-10-22T02:12:14.548Z,90.53
2022-10-22T02:14:15.742Z,90.58
2022-10-22T02:16:17.426Z,90.94
2022-10-22T02:20:20.215Z,90.22
2022-10-22T02:22:21.986Z,90.39
2022-10-22T02:24:23.785Z,90.22
2022-10-22T02:26:25.438Z,90.15
2022-10-22T02:28:26.379Z,90.24
2022-10-22T02:30:27.342Z,90.36
2022-10-22T02:32:28.699Z,90.23
2022-10-22T02:34:30.163Z,90.5
2022-10-22T02:36:31.285Z,90.89
2022-10-22T02:38:32.374Z,91.06
2022-10-22T02:40:34.082Z,90.74
2022-10-22T02:42:35.062Z,90.74
2022-10-22T02:44:36.069Z,90.71
2022-10-22T02:46:37.869Z,89
2022-10-22T02:48:39.724Z,89.2
2022-10-22T02:52:42.908Z,89.76
2022-10-22T02:54:43.872Z,89.97
2022-10-22T02:56:45.209Z,89.82
2022-10-22T02:58:46.682Z,90.13
2022-10-22T03:00:48.146Z,90.21
2022-10-22T03:02:49.965Z,90.89
2022-10-22T03:04:51.436Z,90.7
2022-10-22T03:06:53.046Z,91.01
2022-10-22T03:08:54.515Z,91.12
2022-10-22T03:10:56.174Z,91.25
2022-10-22T03:12:57.125Z,91.3
2022-10-22T03:14:58.641Z,91.06
2022-10-22T03:17:00.263Z,91.05
2022-10-22T03:19:02.157Z,91.2
2022-10-22T03:21:03.709Z,91.58
2022-10-22T03:25:06.944Z,91.88
2022-10-22T03:27:08.279Z,91.64
2022-10-22T03:29:09.529Z,91.49
2022-10-22T03:31:11.090Z,91.76
2022-10-22T03:33:12.075Z,91.82
2022-10-22T03:35:13.220Z,91.92
2022-10-22T03:37:14.518Z,91.26
2022-10-22T03:41:16.658Z,91.23
2022-10-22T03:43:18.484Z,91.49
2022-10-22T03:45:19.536Z,91.39
2022-10-22T03:47:20.766Z,91.41
2022-10-22T03:51:22.700Z,91.45
2022-10-22T03:53:24.011Z,91.44
2022-10-22T03:55:24.990Z,91.46
2022-10-22T03:57:25.952Z,91.59
2022-10-22T03:59:27.223Z,91.45
2022-10-22T04:01:28.776Z,91.67
2022-10-22T04:03:30.149Z,91.92
2022-10-22T04:05:31.593Z,92.1
2022-10-22T04:07:32.716Z,92.37
2022-10-22T04:09:33.744Z,92.45
2022-10-22T04:11:35.565Z,92.53
2022-10-22T04:13:37.171Z,92.52
2022-10-22T04:15:38.604Z,92.67
2022-10-22T04:17:40.525Z,92.81
2022-10-22T04:19:41.832Z,93.45
2022-10-22T04:21:43.279Z,94.02
2022-10-22T04:23:44.591Z,94.31
2022-10-22T04:25:45.836Z,94.4
2022-10-22T04:27:47.647Z,94.55
2022-10-22T04:29:48.968Z,94.69
2022-10-22T04:33:51.402Z,95.73
2022-10-22T04:35:53.082Z,95.64
2022-10-22T04:37:54.038Z,95.64
2022-10-22T04:39:57.407Z,95.31
2022-10-22T04:41:57.322Z,94.92
2022-10-22T04:43:58.441Z,94.86
2022-10-22T04:45:59.814Z,94.69
2022-10-22T04:48:00.827Z,94.39
2022-10-22T04:50:01.920Z,94.72
2022-10-22T04:52:03.241Z,95.17
2022-10-22T04:54:04.825Z,94.92
2022-10-22T04:56:06.062Z,94.81
2022-10-22T04:58:07.610Z,94.91
2022-10-22T05:00:09.267Z,95.04
2022-10-22T05:02:11.082Z,95.08
2022-10-22T05:04:12.583Z,95.1
2022-10-22T05:06:13.795Z,95.19
2022-10-22T05:08:14.732Z,95.31
2022-10-22T05:10:15.757Z,95.26
2022-10-22T05:12:17.646Z,95.19
2022-10-22T05:14:19.320Z,95.1
2022-10-22T05:16:20.594Z,94.99
2022-10-22T05:18:22.634Z,94.85
2022-10-22T05:20:23.583Z,94.68
2022-10-22T05:22:24.803Z,94.56
2022-10-22T05:24:26.372Z,94.73
2022-10-22T05:26:27.507Z,94.72
2022-10-22T05:28:28.691Z,95.34
2022-10-22T05:30:30.146Z,95.79
2022-10-22T05:32:31.035Z,95.94
2022-10-22T05:34:32.347Z,96.32
2022-10-22T05:36:33.920Z,96.6
2022-10-22T05:38:35.275Z,96.85
2022-10-22T05:40:36.777Z,96.88
2022-10-22T05:42:38.556Z,97.13
2022-10-22T05:44:39.852Z,97.07
2022-10-22T05:46:40.961Z,97.06
2022-10-22T05:48:42.032Z,96.96
2022-10-22T05:50:43.314Z,96.93
2022-10-22T05:52:45.068Z,96.83
2022-10-22T05:54:46.891Z,96.77
2022-10-22T05:56:48.031Z,96.65
2022-10-22T05:58:49.891Z,96.46
2022-10-22T06:00:51.204Z,96.53
2022-10-22T06:04:53.472Z,96.67
2022-10-22T06:06:55.319Z,97.24
2022-10-22T06:08:57.264Z,97.26
2022-10-22T06:10:58.954Z,97.45
2022-10-22T06:15:01.815Z,97.68
2022-10-22T06:17:03.234Z,97.75
2022-10-22T06:19:04.604Z,97.71
2022-10-22T06:21:06.159Z,97.66
2022-10-22T06:23:07.652Z,97.71
2022-10-22T06:25:09.121Z,97.77
2022-10-22T06:27:11.026Z,97.78
2022-10-22T06:29:11.976Z,97.81
2022-10-22T06:31:13.428Z,97.76
2022-10-22T06:33:14.347Z,97.48
2022-10-22T06:35:15.888Z,97.1
2022-10-22T06:37:17.666Z,96.59
2022-10-22T06:39:18.886Z,96.56
2022-10-22T06:41:21.370Z,96.44
2022-10-22T06:43:21.714Z,96.37
2022-10-22T06:46:06.809Z,95.99
2022-10-22T06:48:08.607Z,95.92
2022-10-22T06:52:12.069Z,95.58
2022-10-22T06:54:13.115Z,95.54
2022-10-22T06:56:14.483Z,95.76
2022-10-22T06:58:15.946Z,95.83
2022-10-22T07:00:17.699Z,95.91
2022-10-22T07:02:18.830Z,96.06
2022-10-22T07:04:20.143Z,96
2022-10-22T07:06:21.447Z,95.84
2022-10-22T07:08:22.512Z,95.55
2022-10-22T07:10:24.177Z,95.28
2022-10-22T07:12:24.650Z,94.71
2022-10-22T07:14:25.801Z,95.11
2022-10-22T07:16:29.476Z,95.64
2022-10-22T07:18:28.853Z,96.09
2022-10-22T07:20:29.741Z,96.04
2022-10-22T07:22:31.202Z,95.91
2022-10-22T07:24:32.581Z,96.16
2022-10-22T07:26:34.081Z,96.18
2022-10-22T07:28:35.261Z,95.27
2022-10-22T07:30:36.826Z,95.25
2022-10-22T07:34:39.487Z,94.23
2022-10-22T07:36:39.847Z,93.96
2022-10-22T07:40:42.625Z,93.19
2022-10-22T07:42:43.804Z,93.45
2022-10-22T07:44:45.388Z,93.48
2022-10-22T07:46:48.094Z,92.62
2022-10-22T07:50:49.332Z,90.51
2022-10-22T07:52:51.509Z,90.57
2022-10-22T07:54:52.215Z,91.64
2022-10-22T07:56:53.687Z,92.85
2022-10-22T07:58:54.972Z,93.45
2022-10-22T08:00:56.310Z,93.33
2022-10-22T08:02:57.523Z,92.87
2022-10-22T08:04:59.267Z,92.35
2022-10-22T08:07:00.349Z,92.19
2022-10-22T08:09:01.962Z,92.23
2022-10-22T08:11:03.011Z,91.89
2022-10-22T08:13:04.117Z,91.98
2022-10-22T08:15:05.426Z,91.98
2022-10-22T08:17:07.014Z,91.89
2022-10-22T08:19:08.666Z,91.97
2022-10-22T08:21:09.746Z,91.49
2022-10-22T08:23:11.291Z,91.28
2022-10-22T08:25:13.011Z,90.54
2022-10-22T08:27:14.073Z,90.36
2022-10-22T08:29:15.264Z,90.44
2022-10-22T08:33:17.700Z,89.78
2022-10-22T08:35:19.427Z,89.46
2022-10-22T08:37:21.187Z,89.85
2022-10-22T08:39:22.917Z,89.91
2022-10-22T08:41:24.676Z,90.7
2022-10-22T08:43:26.066Z,88.81
2022-10-22T08:45:27.842Z,89.19
2022-10-22T08:47:29.447Z,88.7
2022-10-22T08:49:30.497Z,89.66
2022-10-22T08:51:31.992Z,89.44
2022-10-22T08:53:33.607Z,89.1
2022-10-22T08:55:36.455Z,89.13
2022-10-22T08:57:36.306Z,89.23
2022-10-22T08:59:37.622Z,88.8
2022-10-22T09:01:39.394Z,88.49
2022-10-22T09:03:40.255Z,88.71
2022-10-22T09:05:41.802Z,88.5
2022-10-22T09:07:43.466Z,88.74
2022-10-22T09:09:44.026Z,86.89
2022-10-22T09:11:45.650Z,86.77
2022-10-22T09:15:48.811Z,86.3
2022-10-22T09:17:50.549Z,86.84
2022-10-22T09:19:51.682Z,85.33
2022-10-22T09:21:52.816Z,84.52
2022-10-22T09:23:54.662Z,84.97
2022-10-22T09:25:55.542Z,83.38
2022-10-22T09:27:56.637Z,83.87
2022-10-22T09:29:57.830Z,83.39
2022-10-22T09:31:59.371Z,83.76
2022-10-22T09:36:01.593Z,83.22
2022-10-22T09:38:02.963Z,83.34
2022-10-22T09:40:04.425Z,83.13
2022-10-22T09:42:05.737Z,83.7
2022-10-22T09:44:07.121Z,81.84
2022-10-22T09:46:08.466Z,81.88
2022-10-22T09:48:09.909Z,81.86
2022-10-22T09:50:11.290Z,81.51
2022-10-22T09:52:12.206Z,82.21
2022-10-22T09:54:13.381Z,82.05
2022-10-22T09:56:14.282Z,80.96
2022-10-22T09:58:15.613Z,80.78
2022-10-22T10:00:17.362Z,80.14
2022-10-22T10:04:19.728Z,80.38
2022-10-22T10:06:21.386Z,78.77
2022-10-22T10:08:22.818Z,77.36
2022-10-22T10:10:24.556Z,79.99
2022-10-22T10:14:27.430Z,77.27
2022-10-22T10:16:29.284Z,78.01
2022-10-22T10:18:31.142Z,77.95
2022-10-22T10:20:32.182Z,78.04
2022-10-22T10:22:33.201Z,78.93
2022-10-22T10:24:34.330Z,78.71
2022-10-22T10:26:35.216Z,77.93
2022-10-22T10:28:36.112Z,77.67
2022-10-22T10:30:37.326Z,77.52
2022-10-22T10:32:38.377Z,78.25
2022-10-22T10:34:39.255Z,76.22
2022-10-22T10:36:40.445Z,76.81
2022-10-22T10:38:42.864Z,77.61
2022-10-22T10:40:44.295Z,77.49
2022-10-22T10:42:46.094Z,77.13
2022-10-22T10:44:47.457Z,76.69
2022-10-22T10:46:48.566Z,76.63
2022-10-22T10:48:49.914Z,78.31
2022-10-22T10:50:51.240Z,76.34
2022-10-22T10:52:52.166Z,77.18
2022-10-22T10:56:55.520Z,75.98
2022-10-22T10:58:57.014Z,76.31
2022-10-22T11:00:58.723Z,76.49
2022-10-22T11:02:59.880Z,77.35
2022-10-22T11:05:01.785Z,76.81
2022-10-22T11:07:10.595Z,76.05
2022-10-22T11:09:04.646Z,76.19
2022-10-22T11:11:05.680Z,75.29
2022-10-22T11:13:06.521Z,74.36
2022-10-22T11:15:07.439Z,74.37
2022-10-22T11:17:09.026Z,74.48
2022-10-22T11:19:11.259Z,74.9
2022-10-22T11:21:11.702Z,76.04
2022-10-22T11:23:19.214Z,77.64
2022-10-22T11:25:14.150Z,76.13
2022-10-22T11:29:16.719Z,76.34
2022-10-22T11:31:17.654Z,76.19
2022-10-22T11:33:18.682Z,76.73
2022-10-22T11:35:23.536Z,76.51
2022-10-22T11:39:22.977Z,76.71
2022-10-22T11:41:24.209Z,76.36
2022-10-22T11:45:27.127Z,75.72
2022-10-22T11:47:28.693Z,75.83
2022-10-22T11:49:29.995Z,76.32
2022-10-22T11:51:31.013Z,76.11
2022-10-22T11:53:32.474Z,73.76
2022-10-22T11:55:33.914Z,73.38
2022-10-22T11:57:35.681Z,73.25
2022-10-22T11:59:36.852Z,73.51
2022-10-22T12:01:38.415Z,73.78
2022-10-22T12:03:39.939Z,76.26
2022-10-22T12:05:41.558Z,73.83
2022-10-22T12:07:42.924Z,73.69
2022-10-22T12:09:44.127Z,73.41
2022-10-22T12:11:45.355Z,73.38
2022-10-22T12:13:46.583Z,72.75
2022-10-22T12:15:48.279Z,73.98
2022-10-22T12:17:49.438Z,73.32
2022-10-22T12:19:50.741Z,71.78
2022-10-22T12:23:53.993Z,73.91
2022-10-22T12:27:57.297Z,71.7
2022-10-22T12:29:58.996Z,71.4
2022-10-22T12:32:00.491Z,71.96
2022-10-22T12:34:01.945Z,71.67
2022-10-22T12:38:04.900Z,71.3
2022-10-22T12:40:05.799Z,72.32
2022-10-22T12:42:06.587Z,71.49
2022-10-22T12:44:08.161Z,70.08
2022-10-22T12:46:09.017Z,70.67
2022-10-22T12:48:10.051Z,68.3
2022-10-22T12:50:11.864Z,69.92
2022-10-22T12:52:13.442Z,67.98
2022-10-22T12:54:14.144Z,67.83
2022-10-22T12:56:15.641Z,67.69
2022-10-22T12:58:17.244Z,68.05
2022-10-22T13:00:18.189Z,69.32
2022-10-22T13:02:19.075Z,68.79
2022-10-22T13:04:20.298Z,68.87
2022-10-22T13:06:21.669Z,68.25
2022-10-22T13:08:22.796Z,67.07
2022-10-22T13:10:23.898Z,67.68
2022-10-22T13:12:25.078Z,69.66
2022-10-22T13:14:26.473Z,69.85
2022-10-22T13:16:28.229Z,70.78
2022-10-22T13:20:30.762Z,71.35
2022-10-22T13:22:32.143Z,71.85
2022-10-22T13:24:33.311Z,72.49
2022-10-22T13:26:34.739Z,73.12
2022-10-22T13:28:35.702Z,73.01
2022-10-22T13:31:21.954Z,73.09
2022-10-22T13:33:23.800Z,73.13
2022-10-22T13:35:25.114Z,73.26
2022-10-22T13:37:26.968Z,73.89
2022-10-22T13:39:28.345Z,73.6
2022-10-22T13:41:29.400Z,73.93
2022-10-22T13:43:30.583Z,72.98
2022-10-22T13:45:32.084Z,72.85
2022-10-22T13:47:33.451Z,74
2022-10-22T13:49:35.133Z,74.25
2022-10-22T13:51:36.903Z,74.89
2022-10-22T13:53:38.132Z,75.06
2022-10-22T13:55:39.043Z,73.19
2022-10-22T13:57:40.384Z,75.16
2022-10-22T13:59:41.227Z,74
2022-10-22T14:03:43.409Z,73.51
2022-10-22T14:05:45.042Z,73.67
2022-10-22T14:07:46.448Z,74.56
2022-10-22T14:09:48.034Z,73.57
2022-10-22T14:13:50.478Z,73.28
2022-10-22T14:15:52.056Z,73.87
2022-10-22T14:17:53.251Z,74.16
2022-10-22T14:19:54.210Z,72.61
2022-10-22T14:21:55.431Z,72.72
2022-10-22T14:23:56.372Z,70.82
2022-10-22T14:25:57.808Z,69.81
2022-10-22T14:27:58.856Z,69.77
2022-10-22T14:29:59.720Z,69.21
2022-10-22T14:32:01.145Z,70.19
2022-10-22T14:34:02.557Z,69.75
2022-10-22T14:36:03.938Z,69.9
2022-10-22T14:38:04.927Z,69.14
2022-10-22T14:40:06.600Z,67.41
2022-10-22T14:42:09.143Z,66.57
2022-10-22T14:44:09.926Z,67.92
2022-10-22T14:46:10.917Z,66.55
2022-10-22T14:48:12.239Z,63.69
2022-10-22T14:50:13.810Z,62.63
2022-10-22T14:52:15.106Z,62.59
2022-10-22T14:56:17.396Z,64.35
2022-10-22T14:58:18.295Z,65.7
2022-10-22T15:00:19.637Z,65.35
2022-10-22T15:02:21.239Z,65.67
2022-10-22T15:04:22.269Z,65.85
2022-10-22T15:06:23.004Z,66.36
2022-10-22T15:08:24.532Z,66.46
2022-10-22T15:10:25.383Z,66.5
2022-10-22T15:12:26.829Z,66.22
2022-10-22T15:14:28.628Z,66.25
2022-10-22T15:16:29.544Z,66.17
2022-10-22T15:18:30.549Z,65.52
2022-10-22T15:20:31.975Z,66.2
2022-10-22T15:22:33.173Z,66.81
2022-10-22T15:24:34.729Z,67.37
2022-10-22T15:26:36.139Z,68.16
2022-10-22T15:28:37.452Z,69.15
2022-10-22T15:30:38.815Z,70.47
2022-10-22T15:32:40.342Z,71.38
2022-10-22T15:34:41.512Z,73.1
2022-10-22T15:36:43.084Z,74.06
2022-10-22T15:38:44.439Z,74.74
2022-10-22T15:40:45.334Z,75.68
2022-10-22T15:44:48.045Z,77.74
2022-10-22T15:48:51.223Z,78.23
2022-10-22T15:50:52.972Z,78.7
2022-10-22T15:52:53.925Z,78
2022-10-22T15:54:55.198Z,77.72
2022-10-22T15:56:56.199Z,77.89
2022-10-22T15:58:57.416Z,78.17
2022-10-22T16:00:59.009Z,78.49
2022-10-22T16:03:00.456Z,79.03
2022-10-22T16:05:01.590Z,79.87
2022-10-22T16:07:02.905Z,80.16
2022-10-22T16:09:04.689Z,77.54
2022-10-22T16:11:05.771Z,78.64
2022-10-22T16:13:07.281Z,79.82
2022-10-22T16:15:08.355Z,81
2022-10-22T16:17:09.804Z,81.83
2022-10-22T16:19:10.659Z,82.08
2022-10-22T16:21:12.086Z,82.14
2022-10-22T16:23:13.253Z,82.02
2022-10-22T16:25:14.367Z,82.14
2022-10-22T16:27:15.467Z,82.14
2022-10-22T16:29:16.829Z,82.47
2022-10-22T16:31:17.710Z,82.81
2022-10-22T16:33:19.070Z,83.31
2022-10-22T16:37:22.116Z,84.27
2022-10-22T16:39:23.089Z,84.08
2022-10-22T16:41:24.533Z,83.91
2022-10-22T16:43:25.794Z,84.04
2022-10-22T16:45:27.391Z,84.04
2022-10-22T16:47:29.045Z,84.93
2022-10-22T16:49:30.779Z,85.58
2022-10-22T16:51:31.658Z,85.91
2022-10-22T16:55:33.811Z,87.38
2022-10-22T16:57:35.149Z,87.8
2022-10-22T16:59:36.539Z,87.66
2022-10-22T17:01:40.833Z,87.12
2022-10-22T17:03:38.802Z,87.18
2022-10-22T17:05:40.457Z,88.18
2022-10-22T17:07:42.149Z,88.25
2022-10-22T17:09:43.644Z,88.19
2022-10-22T17:11:45.143Z,88.2
2022-10-22T17:13:46.206Z,89.24
2022-10-22T17:15:47.797Z,89.92
2022-10-22T17:17:49.128Z,90.42
2022-10-22T17:19:50.953Z,90.39
2022-10-22T17:21:52.210Z,90.58
2022-10-22T17:25:54.555Z,91.21
2022-10-22T17:27:55.986Z,91.2
2022-10-22T17:29:57.632Z,91.22
2022-10-22T17:31:59.479Z,91.26
2022-10-22T17:34:00.970Z,91.48
2022-10-22T17:36:02.426Z,91.61
2022-10-22T17:38:03.795Z,92.27
2022-10-22T17:40:04.865Z,92.9
2022-10-22T17:42:06.474Z,93.28
2022-10-22T17:44:08.033Z,92.89
2022-10-22T17:46:09.025Z,92.53
2022-10-22T17:48:10.408Z,93.12
2022-10-22T17:50:12.316Z,92.94
2022-10-22T17:52:13.909Z,92.62
2022-10-22T17:54:15.013Z,92.77
2022-10-22T17:56:16.779Z,92.16
2022-10-22T17:58:17.819Z,92.43
2022-10-22T18:02:20.783Z,92.96
2022-10-22T18:04:22.022Z,92.42
2022-10-22T18:06:23.366Z,92.57
2022-10-22T18:08:24.754Z,92.88
2022-10-22T18:10:25.952Z,92.93
2022-10-22T18:12:27.810Z,93.78
2022-10-22T18:14:29.744Z,94.37
2022-10-22T18:18:32.882Z,94.17
2022-10-22T18:20:34.402Z,93.67
2022-10-22T18:22:35.607Z,94
2022-10-22T18:24:36.873Z,94.23
2022-10-22T18:26:37.905Z,94.32
2022-10-22T18:30:40.984Z,94.75
2022-10-22T18:32:42.171Z,95.12
2022-10-22T18:34:43.259Z,95.19
2022-10-22T18:36:44.573Z,95.47
2022-10-22T18:38:45.893Z,95.18
2022-10-22T18:40:47.370Z,95.11
2022-10-22T18:42:48.336Z,95.31
2022-10-22T18:44:49.777Z,95.72
2022-10-22T18:46:51.457Z,95.87
2022-10-22T18:50:56.605Z,95.78
2022-10-22T18:52:55.167Z,95.74
2022-10-22T18:54:56.281Z,95.73
2022-10-22T18:56:59.423Z,95.66
2022-10-22T19:01:00.927Z,95.6
2022-10-22T19:03:02.059Z,95.64
2022-10-22T19:05:03.183Z,95.72
2022-10-22T19:07:04.190Z,95.83
2022-10-22T19:09:05.650Z,95.87
2022-10-22T19:11:06.633Z,95.88
2022-10-22T19:13:08.119Z,95.99
2022-10-22T19:15:09.346Z,96.04
2022-10-22T19:17:10.487Z,96.17
2022-10-22T19:19:12.380Z,96.27
2022-10-22T19:21:13.900Z,96.43
2022-10-22T19:23:18.518Z,96.6
2022-10-22T19:25:17.142Z,96.66
2022-10-22T19:27:18.371Z,96.81
2022-10-22T19:29:19.484Z,97
2022-10-22T19:31:20.998Z,97.09
2022-10-22T19:33:22.053Z,97.13
2022-10-22T19:35:23.862Z,97.21
2022-10-22T19:37:25.774Z,97.22
2022-10-22T19:39:27.216Z,97.26
2022-10-22T19:41:29.122Z,97.18
2022-10-22T19:43:30.918Z,97.14
2022-10-22T19:45:32.264Z,97.16
2022-10-22T19:49:34.801Z,97.32
2022-10-22T19:51:36.255Z,97.34
2022-10-22T19:53:37.617Z,97.36
2022-10-22T19:55:38.575Z,97.38
2022-10-22T19:59:41.443Z,97.43
2022-10-22T20:01:42.476Z,97.47
2022-10-22T20:03:43.566Z,97.51
2022-10-22T20:05:45.388Z,97.52
2022-10-22T20:07:47.115Z,97.45
2022-10-22T20:09:48.296Z,97.54
2022-10-22T20:11:50.213Z,97.51
2022-10-22T20:13:52.464Z,97.56
2022-10-22T20:14:35.779Z,97.6
2022-10-22T20:16:37.015Z,97.64
2022-10-22T20:18:38.717Z,97.67
2022-10-22T20:20:39.872Z,97.7
2022-10-22T20:22:41.678Z,97.7
2022-10-22T20:26:44.365Z,97.65
2022-10-22T20:28:45.325Z,97.69
2022-10-22T20:30:46.464Z,97.66
2022-10-22T20:32:48.099Z,97.69
2022-10-22T20:34:49.225Z,97.74
2022-10-22T20:36:50.673Z,97.79
2022-10-22T20:38:51.823Z,97.91
2022-10-22T20:40:53.103Z,97.87
2022-10-22T20:42:54.117Z,97.86
2022-10-22T20:44:55.250Z,97.85
2022-10-22T20:48:57.986Z,97.94
2022-10-22T20:50:59.625Z,98.03
2022-10-22T20:53:01.223Z,98.1
2022-10-22T20:55:02.585Z,98.08
2022-10-22T20:57:03.796Z,98.09
2022-10-22T20:59:05.710Z,98.08
2022-10-22T21:01:07.163Z,98.09
2022-10-22T21:03:08.879Z,98.11
2022-10-22T21:05:09.917Z,98.12
2022-10-22T21:07:11.374Z,98.09
2022-10-22T21:09:13.128Z,98.09
2022-10-22T21:11:14.553Z,98.14
2022-10-22T21:15:17.633Z,98.21
2022-10-22T21:17:19.184Z,98.21
2022-10-22T21:19:20.718Z,98.24
2022-10-22T21:21:21.734Z,98.22
2022-10-22T21:25:24.370Z,98.41
2022-10-22T21:27:25.906Z,98.47
2022-10-22T21:29:26.978Z,98.49
2022-10-22T21:31:28.125Z,98.49
2022-10-22T21:33:29.749Z,98.58
2022-10-22T21:35:31.591Z,98.64
2022-10-22T21:37:32.650Z,98.6
2022-10-22T21:39:37.213Z,98.58
2022-10-22T21:41:36.275Z,98.55
2022-10-22T21:43:37.302Z,98.57
2022-10-22T21:45:39.090Z,98.56
2022-10-22T21:47:41.239Z,98.55
2022-10-22T21:49:42.722Z,98.55
2022-10-22T21:53:46.051Z,98.54
2022-10-22T21:57:49.312Z,98.55
2022-10-22T21:59:50.838Z,98.55
2022-10-22T22:01:52.052Z,98.62
2022-10-22T22:03:53.532Z,98.64
2022-10-22T22:05:55.443Z,98.69
2022-10-22T22:07:57.152Z,98.76
2022-10-22T22:09:58.610Z,98.77
2022-10-22T22:12:00.212Z,98.75
2022-10-22T22:14:02.099Z,98.75
2022-10-22T22:16:03.331Z,98.84
2022-10-22T22:18:04.479Z,98.84
2022-10-22T22:20:06.060Z,98.81
2022-10-22T22:22:07.435Z,98.83
2022-10-22T22:24:09.268Z,98.8
2022-10-22T22:26:11.153Z,98.81
2022-10-22T22:28:12.832Z,98.8
2022-10-22T22:30:14.721Z,98.8
2022-10-22T22:32:16.193Z,98.79
2022-10-22T22:34:17.453Z,98.78
2022-10-22T22:36:18.781Z,98.77
2022-10-22T22:38:20.116Z,98.73
2022-10-22T22:40:21.699Z,98.73
2022-10-22T22:42:23.120Z,98.74
2022-10-22T22:44:24.805Z,98.77
2022-10-22T22:46:26.153Z,98.81
2022-10-22T22:50:28.708Z,98.81
2022-10-22T22:52:30.552Z,98.81
2022-10-22T22:54:31.955Z,98.83
2022-10-22T22:56:33.842Z,98.88
2022-10-22T22:58:34.800Z,98.91
2022-10-22T23:00:36.621Z,98.94
2022-10-22T23:02:38.105Z,98.98
2022-10-22T23:04:39.175Z,99
2022-10-22T23:06:40.788Z,99.02
2022-10-22T23:08:42.102Z,99.01
2022-10-22T23:10:43.284Z,99.01
2022-10-22T23:12:44.676Z,99.04
2022-10-22T23:14:46.218Z,99.02
2022-10-22T23:16:48.127Z,99
2022-10-22T23:18:49.983Z,98.96
2022-10-22T23:20:51.815Z,99
2022-10-22T23:22:53.166Z,99.03
2022-10-22T23:24:54.248Z,99.05
2022-10-22T23:26:55.325Z,99.11
2022-10-22T23:28:57.166Z,99.17
2022-10-22T23:33:00.614Z,99.18
2022-10-22T23:35:02.264Z,99.19
2022-10-22T23:37:04.210Z,99.19
2022-10-22T23:39:05.648Z,99.17
2022-10-22T23:41:06.729Z,99.18
2022-10-22T23:43:07.672Z,99.21
2022-10-22T23:45:08.961Z,99.25
2022-10-22T23:47:10.199Z,99.26
2022-10-22T23:49:11.576Z,99.24
2022-10-22T23:51:13.030Z,99.23
2022-10-22T23:53:14.605Z,99.21
2022-10-22T23:55:15.701Z,99.19
2022-10-22T23:57:17.627Z,99.18
2022-10-22T23:59:19.380Z,99.17
